Taylortown, Ohio
Current Conditions -  °F | °C
As of 10:52 AM on Friday 21 Nov 2014 (Local Time) from KMFD Reporting Station
Clear Clear  
Wind Chill: 15°   Ceiling: Unl
Heat Index: 21°   Visibility: 10mi
Dew Point: 10°   Wind: 5mph
Humidity: 63%   Direction: 250°WSW
Pressure: 30.46"   Gusts: NA
Location:  40.8848°N, 82.6515°W
Report Text: KMFD 211552Z 25004KT 10SM CLR M06/M12 A3046 RMK AO2 SLP334 T10611122
Loading
Personal Weather Stations






























Interactive Weather Map New forecast layout! Learn more

10-Day Weather Forecast

Advertisements
Track Severe Weather on mobile